sensor_id;sensor_type;location;lat;lon;timestamp;P1;durP1;ratioP1;P2;durP2;ratioP2
59145;SDS011;44928;53.074;6.646;2022-11-18T00:00:27;21.02;;;15.45;;
59145;SDS011;44928;53.074;6.646;2022-11-18T00:02:53;19.63;;;14.60;;
59145;SDS011;44928;53.074;6.646;2022-11-18T00:05:19;18.83;;;13.68;;
59145;SDS011;44928;53.074;6.646;2022-11-18T00:07:44;19.10;;;14.35;;
59145;SDS011;44928;53.074;6.646;2022-11-18T00:10:10;19.60;;;14.93;;
59145;SDS011;44928;53.074;6.646;2022-11-18T00:12:36;19.15;;;13.30;;
59145;SDS011;44928;53.074;6.646;2022-11-18T00:15:20;19.20;;;14.50;;
59145;SDS011;44928;53.074;6.646;2022-11-18T00:17:46;19.30;;;14.02;;
59145;SDS011;44928;53.074;6.646;2022-11-18T00:20:11;21.10;;;15.43;;
59145;SDS011;44928;53.074;6.646;2022-11-18T00:22:37;19.95;;;14.70;;
59145;SDS011;44928;53.074;6.646;2022-11-18T00:25:03;18.90;;;14.23;;
59145;SDS011;44928;53.074;6.646;2022-11-18T00:27:29;19.65;;;14.73;;
59145;SDS011;44928;53.074;6.646;2022-11-18T00:29:55;19.85;;;14.63;;
59145;SDS011;44928;53.074;6.646;2022-11-18T00:32:22;19.48;;;15.45;;
59145;SDS011;44928;53.074;6.646;2022-11-18T00:34:47;19.20;;;14.45;;
59145;SDS011;44928;53.074;6.646;2022-11-18T00:37:13;20.88;;;14.05;;
59145;SDS011;44928;53.074;6.646;2022-11-18T00:39:39;19.17;;;14.82;;
59145;SDS011;44928;53.074;6.646;2022-11-18T00:42:05;21.27;;;15.15;;
59145;SDS011;44928;53.074;6.646;2022-11-18T00:44:49;20.08;;;14.68;;
59145;SDS011;44928;53.074;6.646;2022-11-18T00:47:15;20.70;;;14.85;;
59145;SDS011;44928;53.074;6.646;2022-11-18T00:49:41;22.67;;;15.65;;
59145;SDS011;44928;53.074;6.646;2022-11-18T00:52:07;20.77;;;15.40;;
59145;SDS011;44928;53.074;6.646;2022-11-18T00:54:33;21.17;;;15.43;;
59145;SDS011;44928;53.074;6.646;2022-11-18T00:56:58;18.17;;;13.40;;
59145;SDS011;44928;53.074;6.646;2022-11-18T00:59:24;21.17;;;15.60;;
59145;SDS011;44928;53.074;6.646;2022-11-18T01:01:50;21.73;;;15.70;;
59145;SDS011;44928;53.074;6.646;2022-11-18T01:04:16;23.05;;;15.32;;
59145;SDS011;44928;53.074;6.646;2022-11-18T01:06:42;23.13;;;16.17;;
59145;SDS011;44928;53.074;6.646;2022-11-18T01:09:07;23.42;;;16.02;;
59145;SDS011;44928;53.074;6.646;2022-11-18T01:11:33;20.10;;;14.70;;
59145;SDS011;44928;53.074;6.646;2022-11-18T01:14:17;20.80;;;14.73;;
59145;SDS011;44928;53.074;6.646;2022-11-18T01:16:43;21.05;;;15.48;;
59145;SDS011;44928;53.074;6.646;2022-11-18T01:19:15;22.13;;;15.63;;
59145;SDS011;44928;53.074;6.646;2022-11-18T01:21:41;23.48;;;15.75;;
59145;SDS011;44928;53.074;6.646;2022-11-18T01:24:07;20.17;;;15.57;;
59145;SDS011;44928;53.074;6.646;2022-11-18T01:26:33;23.58;;;16.35;;
59145;SDS011;44928;53.074;6.646;2022-11-18T01:28:59;23.63;;;16.20;;
59145;SDS011;44928;53.074;6.646;2022-11-18T01:31:25;22.52;;;15.63;;
59145;SDS011;44928;53.074;6.646;2022-11-18T01:33:51;22.13;;;16.38;;
59145;SDS011;44928;53.074;6.646;2022-11-18T01:36:20;22.13;;;16.17;;
59145;SDS011;44928;53.074;6.646;2022-11-18T01:38:50;25.98;;;17.65;;
59145;SDS011;44928;53.074;6.646;2022-11-18T01:41:16;24.50;;;17.40;;
59145;SDS011;44928;53.074;6.646;2022-11-18T01:43:51;24.05;;;17.35;;
59145;SDS011;44928;53.074;6.646;2022-11-18T01:46:17;24.77;;;17.67;;
59145;SDS011;44928;53.074;6.646;2022-11-18T01:48:44;25.48;;;17.80;;
59145;SDS011;44928;53.074;6.646;2022-11-18T01:51:12;27.95;;;17.77;;
59145;SDS011;44928;53.074;6.646;2022-11-18T01:53:42;25.90;;;17.50;;
59145;SDS011;44928;53.074;6.646;2022-11-18T01:56:20;25.35;;;16.75;;
59145;SDS011;44928;53.074;6.646;2022-11-18T01:58:51;24.05;;;16.40;;
59145;SDS011;44928;53.074;6.646;2022-11-18T02:01:20;29.10;;;17.85;;
59145;SDS011;44928;53.074;6.646;2022-11-18T02:03:47;25.55;;;17.45;;
59145;SDS011;44928;53.074;6.646;2022-11-18T02:06:14;28.25;;;17.40;;
59145;SDS011;44928;53.074;6.646;2022-11-18T02:08:40;25.40;;;16.67;;
59145;SDS011;44928;53.074;6.646;2022-11-18T02:11:10;23.85;;;16.55;;
59145;SDS011;44928;53.074;6.646;2022-11-18T02:16:31;24.13;;;15.55;;
59145;SDS011;44928;53.074;6.646;2022-11-18T02:30:43;24.55;;;16.50;;
59145;SDS011;44928;53.074;6.646;2022-11-18T02:33:25;24.67;;;16.08;;
59145;SDS011;44928;53.074;6.646;2022-11-18T02:36:05;24.45;;;15.32;;
59145;SDS011;44928;53.074;6.646;2022-11-18T02:38:42;25.00;;;16.83;;
59145;SDS011;44928;53.074;6.646;2022-11-18T02:41:17;24.98;;;15.82;;
59145;SDS011;44928;53.074;6.646;2022-11-18T02:43:55;24.23;;;16.55;;
59145;SDS011;44928;53.074;6.646;2022-11-18T02:46:27;25.80;;;16.70;;
59145;SDS011;44928;53.074;6.646;2022-11-18T02:48:57;24.67;;;16.70;;
59145;SDS011;44928;53.074;6.646;2022-11-18T02:51:25;23.98;;;16.80;;
59145;SDS011;44928;53.074;6.646;2022-11-18T02:53:57;22.92;;;14.05;;
59145;SDS011;44928;53.074;6.646;2022-11-18T02:56:26;27.48;;;15.07;;
59145;SDS011;44928;53.074;6.646;2022-11-18T02:58:53;22.90;;;14.68;;
59145;SDS011;44928;53.074;6.646;2022-11-18T03:01:23;24.15;;;13.80;;
59145;SDS011;44928;53.074;6.646;2022-11-18T03:03:54;24.02;;;14.48;;
59145;SDS011;44928;53.074;6.646;2022-11-18T03:06:37;23.92;;;14.23;;
59145;SDS011;44928;53.074;6.646;2022-11-18T03:09:15;21.33;;;14.23;;
59145;SDS011;44928;53.074;6.646;2022-11-18T03:14:31;21.75;;;14.43;;
59145;SDS011;44928;53.074;6.646;2022-11-18T03:22:32;22.40;;;14.13;;
59145;SDS011;44928;53.074;6.646;2022-11-18T03:25:22;21.10;;;13.75;;
59145;SDS011;44928;53.074;6.646;2022-11-18T03:28:10;22.73;;;13.45;;
59145;SDS011;44928;53.074;6.646;2022-11-18T03:30:45;21.45;;;13.50;;
59145;SDS011;44928;53.074;6.646;2022-11-18T03:33:16;19.10;;;13.20;;
59145;SDS011;44928;53.074;6.646;2022-11-18T03:35:46;23.83;;;14.57;;
59145;SDS011;44928;53.074;6.646;2022-11-18T03:38:17;19.60;;;13.57;;
59145;SDS011;44928;53.074;6.646;2022-11-18T03:40:53;19.55;;;13.02;;
59145;SDS011;44928;53.074;6.646;2022-11-18T03:43:23;19.30;;;12.48;;
59145;SDS011;44928;53.074;6.646;2022-11-18T03:45:58;20.70;;;14.25;;
59145;SDS011;44928;53.074;6.646;2022-11-18T03:48:33;21.23;;;13.00;;
59145;SDS011;44928;53.074;6.646;2022-11-18T03:51:06;20.05;;;13.20;;
59145;SDS011;44928;53.074;6.646;2022-11-18T03:53:37;20.67;;;13.65;;
59145;SDS011;44928;53.074;6.646;2022-11-18T03:56:09;19.73;;;12.95;;
59145;SDS011;44928;53.074;6.646;2022-11-18T03:58:54;20.50;;;13.88;;
59145;SDS011;44928;53.074;6.646;2022-11-18T04:01:23;20.23;;;14.32;;
59145;SDS011;44928;53.074;6.646;2022-11-18T04:04:04;20.13;;;12.45;;
59145;SDS011;44928;53.074;6.646;2022-11-18T04:09:08;21.08;;;13.07;;
59145;SDS011;44928;53.074;6.646;2022-11-18T04:11:46;20.15;;;12.88;;
59145;SDS011;44928;53.074;6.646;2022-11-18T04:14:46;20.23;;;12.73;;
59145;SDS011;44928;53.074;6.646;2022-11-18T04:17:17;21.38;;;13.25;;
59145;SDS011;44928;53.074;6.646;2022-11-18T04:19:45;20.58;;;13.63;;
59145;SDS011;44928;53.074;6.646;2022-11-18T04:22:11;19.98;;;13.25;;
59145;SDS011;44928;53.074;6.646;2022-11-18T04:24:38;20.85;;;13.70;;
59145;SDS011;44928;53.074;6.646;2022-11-18T04:27:04;20.58;;;12.52;;
59145;SDS011;44928;53.074;6.646;2022-11-18T04:29:31;19.63;;;12.43;;
59145;SDS011;44928;53.074;6.646;2022-11-18T04:31:58;18.75;;;13.05;;
59145;SDS011;44928;53.074;6.646;2022-11-18T04:34:24;18.05;;;12.55;;
59145;SDS011;44928;53.074;6.646;2022-11-18T04:36:50;18.35;;;12.85;;
59145;SDS011;44928;53.074;6.646;2022-11-18T04:39:16;19.83;;;12.38;;
59145;SDS011;44928;53.074;6.646;2022-11-18T04:41:42;18.85;;;13.18;;
59145;SDS011;44928;53.074;6.646;2022-11-18T04:46:46;19.33;;;12.52;;
59145;SDS011;44928;53.074;6.646;2022-11-18T04:49:13;21.55;;;13.85;;
59145;SDS011;44928;53.074;6.646;2022-11-18T04:51:39;22.63;;;13.10;;
59145;SDS011;44928;53.074;6.646;2022-11-18T04:54:06;20.08;;;12.65;;
59145;SDS011;44928;53.074;6.646;2022-11-18T04:56:32;19.33;;;13.25;;
59145;SDS011;44928;53.074;6.646;2022-11-18T04:58:59;20.30;;;13.23;;
59145;SDS011;44928;53.074;6.646;2022-11-18T05:01:26;20.60;;;13.18;;
59145;SDS011;44928;53.074;6.646;2022-11-18T05:03:52;18.17;;;12.73;;
59145;SDS011;44928;53.074;6.646;2022-11-18T05:06:18;18.92;;;12.35;;
59145;SDS011;44928;53.074;6.646;2022-11-18T05:08:44;20.98;;;12.55;;
59145;SDS011;44928;53.074;6.646;2022-11-18T05:11:10;20.35;;;12.57;;
59145;SDS011;44928;53.074;6.646;2022-11-18T05:13:54;17.50;;;12.35;;
59145;SDS011;44928;53.074;6.646;2022-11-18T05:16:20;21.88;;;12.98;;
59145;SDS011;44928;53.074;6.646;2022-11-18T05:18:45;20.25;;;13.00;;
59145;SDS011;44928;53.074;6.646;2022-11-18T05:21:11;20.08;;;12.38;;
59145;SDS011;44928;53.074;6.646;2022-11-18T05:23:37;23.17;;;12.75;;
59145;SDS011;44928;53.074;6.646;2022-11-18T05:26:06;23.45;;;14.38;;
59145;SDS011;44928;53.074;6.646;2022-11-18T05:28:34;21.15;;;13.52;;
59145;SDS011;44928;53.074;6.646;2022-11-18T05:31:05;20.67;;;12.50;;
59145;SDS011;44928;53.074;6.646;2022-11-18T05:33:32;20.00;;;12.50;;
59145;SDS011;44928;53.074;6.646;2022-11-18T05:36:01;22.45;;;12.95;;
59145;SDS011;44928;53.074;6.646;2022-11-18T05:38:31;20.65;;;13.63;;
59145;SDS011;44928;53.074;6.646;2022-11-18T05:40:57;21.00;;;12.65;;
59145;SDS011;44928;53.074;6.646;2022-11-18T05:43:23;21.13;;;13.05;;
59145;SDS011;44928;53.074;6.646;2022-11-18T05:45:49;21.00;;;12.50;;
59145;SDS011;44928;53.074;6.646;2022-11-18T05:48:16;20.67;;;12.55;;
59145;SDS011;44928;53.074;6.646;2022-11-18T05:50:44;21.63;;;11.98;;
59145;SDS011;44928;53.074;6.646;2022-11-18T05:53:11;19.92;;;12.77;;
59145;SDS011;44928;53.074;6.646;2022-11-18T05:55:56;20.40;;;12.75;;
59145;SDS011;44928;53.074;6.646;2022-11-18T05:58:30;19.75;;;11.80;;
59145;SDS011;44928;53.074;6.646;2022-11-18T06:00:56;23.58;;;13.65;;
59145;SDS011;44928;53.074;6.646;2022-11-18T06:03:27;20.58;;;12.40;;
59145;SDS011;44928;53.074;6.646;2022-11-18T06:05:55;23.17;;;13.43;;
59145;SDS011;44928;53.074;6.646;2022-11-18T06:08:23;22.60;;;12.95;;
59145;SDS011;44928;53.074;6.646;2022-11-18T06:10:53;21.15;;;13.02;;
59145;SDS011;44928;53.074;6.646;2022-11-18T06:13:21;21.35;;;11.95;;
59145;SDS011;44928;53.074;6.646;2022-11-18T06:15:50;24.17;;;13.02;;
59145;SDS011;44928;53.074;6.646;2022-11-18T06:18:23;20.90;;;12.57;;
59145;SDS011;44928;53.074;6.646;2022-11-18T06:20:55;27.55;;;14.70;;
59145;SDS011;44928;53.074;6.646;2022-11-18T06:23:24;24.13;;;13.40;;
59145;SDS011;44928;53.074;6.646;2022-11-18T06:25:51;22.58;;;12.70;;
59145;SDS011;44928;53.074;6.646;2022-11-18T06:28:17;23.75;;;13.43;;
59145;SDS011;44928;53.074;6.646;2022-11-18T06:30:44;22.42;;;14.80;;
59145;SDS011;44928;53.074;6.646;2022-11-18T06:33:10;25.35;;;14.32;;
59145;SDS011;44928;53.074;6.646;2022-11-18T06:35:35;26.35;;;14.93;;
59145;SDS011;44928;53.074;6.646;2022-11-18T06:38:01;26.42;;;15.93;;
59145;SDS011;44928;53.074;6.646;2022-11-18T06:40:27;24.20;;;14.68;;
59145;SDS011;44928;53.074;6.646;2022-11-18T06:42:53;24.33;;;12.80;;
59145;SDS011;44928;53.074;6.646;2022-11-18T06:45:37;25.23;;;14.40;;
59145;SDS011;44928;53.074;6.646;2022-11-18T06:48:03;22.75;;;14.48;;
59145;SDS011;44928;53.074;6.646;2022-11-18T06:50:29;27.92;;;15.77;;
59145;SDS011;44928;53.074;6.646;2022-11-18T06:52:58;25.45;;;15.43;;
59145;SDS011;44928;53.074;6.646;2022-11-18T06:55:24;26.63;;;14.90;;
59145;SDS011;44928;53.074;6.646;2022-11-18T06:57:49;23.67;;;13.85;;
59145;SDS011;44928;53.074;6.646;2022-11-18T07:00:15;26.20;;;15.30;;
59145;SDS011;44928;53.074;6.646;2022-11-18T07:02:42;24.38;;;14.32;;
59145;SDS011;44928;53.074;6.646;2022-11-18T07:05:07;24.95;;;14.75;;
59145;SDS011;44928;53.074;6.646;2022-11-18T07:07:33;26.85;;;14.63;;
59145;SDS011;44928;53.074;6.646;2022-11-18T07:10:00;27.15;;;14.00;;
59145;SDS011;44928;53.074;6.646;2022-11-18T07:12:26;23.65;;;14.45;;
59145;SDS011;44928;53.074;6.646;2022-11-18T07:14:51;24.70;;;14.10;;
59145;SDS011;44928;53.074;6.646;2022-11-18T07:17:17;24.60;;;14.10;;
59145;SDS011;44928;53.074;6.646;2022-11-18T07:19:43;24.25;;;14.55;;
59145;SDS011;44928;53.074;6.646;2022-11-18T07:22:08;24.67;;;14.27;;
59145;SDS011;44928;53.074;6.646;2022-11-18T07:24:34;26.75;;;13.25;;
59145;SDS011;44928;53.074;6.646;2022-11-18T07:27:02;24.90;;;13.43;;
59145;SDS011;44928;53.074;6.646;2022-11-18T07:29:27;25.15;;;14.05;;
59145;SDS011;44928;53.074;6.646;2022-11-18T07:31:53;24.35;;;13.48;;
59145;SDS011;44928;53.074;6.646;2022-11-18T07:34:19;21.95;;;13.07;;
59145;SDS011;44928;53.074;6.646;2022-11-18T07:36:44;22.65;;;13.55;;
59145;SDS011;44928;53.074;6.646;2022-11-18T07:39:10;24.17;;;12.90;;
59145;SDS011;44928;53.074;6.646;2022-11-18T07:41:37;22.02;;;12.77;;
59145;SDS011;44928;53.074;6.646;2022-11-18T07:44:04;23.88;;;13.13;;
59145;SDS011;44928;53.074;6.646;2022-11-18T07:46:35;22.52;;;11.77;;
59145;SDS011;44928;53.074;6.646;2022-11-18T07:49:03;23.73;;;12.65;;
59145;SDS011;44928;53.074;6.646;2022-11-18T07:51:31;16.73;;;9.82;;
59145;SDS011;44928;53.074;6.646;2022-11-18T07:53:59;19.65;;;11.80;;
59145;SDS011;44928;53.074;6.646;2022-11-18T07:56:25;22.13;;;12.13;;
59145;SDS011;44928;53.074;6.646;2022-11-18T07:58:52;19.88;;;11.60;;
59145;SDS011;44928;53.074;6.646;2022-11-18T08:01:19;21.83;;;11.40;;
59145;SDS011;44928;53.074;6.646;2022-11-18T08:03:47;23.45;;;12.40;;
59145;SDS011;44928;53.074;6.646;2022-11-18T08:06:14;19.80;;;12.10;;
59145;SDS011;44928;53.074;6.646;2022-11-18T08:08:42;23.80;;;12.55;;
59145;SDS011;44928;53.074;6.646;2022-11-18T08:11:09;17.73;;;10.63;;
59145;SDS011;44928;53.074;6.646;2022-11-18T08:13:41;18.95;;;10.93;;
59145;SDS011;44928;53.074;6.646;2022-11-18T08:16:24;19.02;;;11.25;;
59145;SDS011;44928;53.074;6.646;2022-11-18T08:18:50;20.55;;;11.23;;
59145;SDS011;44928;53.074;6.646;2022-11-18T08:21:17;17.90;;;10.82;;
59145;SDS011;44928;53.074;6.646;2022-11-18T08:23:52;16.33;;;9.80;;
59145;SDS011;44928;53.074;6.646;2022-11-18T08:26:18;16.10;;;8.82;;
59145;SDS011;44928;53.074;6.646;2022-11-18T08:28:45;15.25;;;9.30;;
59145;SDS011;44928;53.074;6.646;2022-11-18T08:31:21;17.10;;;9.30;;
59145;SDS011;44928;53.074;6.646;2022-11-18T08:34:01;16.20;;;8.90;;
59145;SDS011;44928;53.074;6.646;2022-11-18T08:36:30;15.38;;;9.27;;
59145;SDS011;44928;53.074;6.646;2022-11-18T08:38:58;15.23;;;8.52;;
59145;SDS011;44928;53.074;6.646;2022-11-18T08:41:38;14.45;;;8.43;;
59145;SDS011;44928;53.074;6.646;2022-11-18T08:44:07;15.45;;;9.20;;
59145;SDS011;44928;53.074;6.646;2022-11-18T08:46:36;14.30;;;8.68;;
59145;SDS011;44928;53.074;6.646;2022-11-18T08:49:02;15.65;;;7.97;;
59145;SDS011;44928;53.074;6.646;2022-11-18T08:51:28;16.15;;;8.82;;
59145;SDS011;44928;53.074;6.646;2022-11-18T08:53:54;15.52;;;9.07;;
59145;SDS011;44928;53.074;6.646;2022-11-18T08:56:21;15.65;;;8.70;;
59145;SDS011;44928;53.074;6.646;2022-11-18T08:58:47;16.17;;;9.32;;
59145;SDS011;44928;53.074;6.646;2022-11-18T09:01:13;15.32;;;8.93;;
59145;SDS011;44928;53.074;6.646;2022-11-18T09:03:39;17.73;;;9.65;;
59145;SDS011;44928;53.074;6.646;2022-11-18T09:06:09;15.98;;;8.93;;
59145;SDS011;44928;53.074;6.646;2022-11-18T09:08:39;16.35;;;8.95;;
59145;SDS011;44928;53.074;6.646;2022-11-18T09:11:06;16.05;;;9.15;;
59145;SDS011;44928;53.074;6.646;2022-11-18T09:13:33;15.00;;;7.72;;
59145;SDS011;44928;53.074;6.646;2022-11-18T09:16:00;14.85;;;8.75;;
59145;SDS011;44928;53.074;6.646;2022-11-18T09:18:26;14.50;;;8.60;;
59145;SDS011;44928;53.074;6.646;2022-11-18T09:20:53;16.33;;;8.80;;
59145;SDS011;44928;53.074;6.646;2022-11-18T09:23:20;14.57;;;8.57;;
59145;SDS011;44928;53.074;6.646;2022-11-18T09:25:46;15.18;;;8.63;;
59145;SDS011;44928;53.074;6.646;2022-11-18T09:28:12;16.70;;;9.32;;
59145;SDS011;44928;53.074;6.646;2022-11-18T09:30:38;14.68;;;8.32;;
59145;SDS011;44928;53.074;6.646;2022-11-18T09:33:03;16.52;;;9.27;;
59145;SDS011;44928;53.074;6.646;2022-11-18T09:35:31;17.73;;;8.85;;
59145;SDS011;44928;53.074;6.646;2022-11-18T09:37:58;17.17;;;9.13;;
59145;SDS011;44928;53.074;6.646;2022-11-18T09:40:24;18.98;;;8.68;;
59145;SDS011;44928;53.074;6.646;2022-11-18T09:42:59;15.68;;;10.30;;
59145;SDS011;44928;53.074;6.646;2022-11-18T09:45:47;18.75;;;10.15;;
59145;SDS011;44928;53.074;6.646;2022-11-18T09:48:28;18.08;;;9.80;;
59145;SDS011;44928;53.074;6.646;2022-11-18T09:51:12;19.85;;;11.02;;
59145;SDS011;44928;53.074;6.646;2022-11-18T09:53:41;17.08;;;9.30;;
59145;SDS011;44928;53.074;6.646;2022-11-18T09:56:13;15.52;;;9.23;;
59145;SDS011;44928;53.074;6.646;2022-11-18T09:58:40;15.95;;;9.38;;
59145;SDS011;44928;53.074;6.646;2022-11-18T10:01:13;16.45;;;9.63;;
59145;SDS011;44928;53.074;6.646;2022-11-18T10:03:43;18.48;;;10.35;;
59145;SDS011;44928;53.074;6.646;2022-11-18T10:06:42;19.40;;;10.00;;
59145;SDS011;44928;53.074;6.646;2022-11-18T10:11:50;17.95;;;10.30;;
59145;SDS011;44928;53.074;6.646;2022-11-18T10:22:57;17.90;;;9.95;;
59145;SDS011;44928;53.074;6.646;2022-11-18T10:25:27;16.60;;;9.93;;
59145;SDS011;44928;53.074;6.646;2022-11-18T10:27:53;16.83;;;10.40;;
59145;SDS011;44928;53.074;6.646;2022-11-18T10:30:21;18.95;;;11.57;;
59145;SDS011;44928;53.074;6.646;2022-11-18T10:32:52;22.27;;;14.68;;
59145;SDS011;44928;53.074;6.646;2022-11-18T10:37:58;19.17;;;10.77;;
59145;SDS011;44928;53.074;6.646;2022-11-18T10:40:31;18.92;;;11.55;;
59145;SDS011;44928;53.074;6.646;2022-11-18T10:42:58;21.25;;;11.85;;
59145;SDS011;44928;53.074;6.646;2022-11-18T10:45:28;21.67;;;11.20;;
59145;SDS011;44928;53.074;6.646;2022-11-18T10:50:32;21.10;;;11.90;;
59145;SDS011;44928;53.074;6.646;2022-11-18T10:53:01;19.10;;;11.32;;
59145;SDS011;44928;53.074;6.646;2022-11-18T10:55:28;20.63;;;12.00;;
59145;SDS011;44928;53.074;6.646;2022-11-18T10:57:56;23.02;;;12.38;;
59145;SDS011;44928;53.074;6.646;2022-11-18T11:00:32;22.05;;;11.90;;
59145;SDS011;44928;53.074;6.646;2022-11-18T11:02:58;24.40;;;13.38;;
59145;SDS011;44928;53.074;6.646;2022-11-18T11:05:24;21.23;;;12.50;;
59145;SDS011;44928;53.074;6.646;2022-11-18T11:08:01;23.70;;;13.52;;
59145;SDS011;44928;53.074;6.646;2022-11-18T11:10:28;24.48;;;12.40;;
59145;SDS011;44928;53.074;6.646;2022-11-18T11:13:15;20.30;;;12.70;;
59145;SDS011;44928;53.074;6.646;2022-11-18T11:15:42;22.38;;;13.60;;
59145;SDS011;44928;53.074;6.646;2022-11-18T11:18:11;23.10;;;12.65;;
59145;SDS011;44928;53.074;6.646;2022-11-18T11:21:02;23.45;;;12.70;;
59145;SDS011;44928;53.074;6.646;2022-11-18T11:23:28;26.13;;;13.75;;
59145;SDS011;44928;53.074;6.646;2022-11-18T11:37:11;21.40;;;12.13;;
59145;SDS011;44928;53.074;6.646;2022-11-18T11:45:23;23.67;;;13.27;;
59145;SDS011;44928;53.074;6.646;2022-11-18T11:48:30;23.27;;;14.63;;
59145;SDS011;44928;53.074;6.646;2022-11-18T11:51:10;27.55;;;14.73;;
59145;SDS011;44928;53.074;6.646;2022-11-18T11:56:44;28.35;;;15.60;;
59145;SDS011;44928;53.074;6.646;2022-11-18T11:59:28;26.50;;;14.43;;
59145;SDS011;44928;53.074;6.646;2022-11-18T12:07:52;20.42;;;11.38;;
59145;SDS011;44928;53.074;6.646;2022-11-18T12:10:28;21.77;;;10.82;;
59145;SDS011;44928;53.074;6.646;2022-11-18T12:26:41;21.02;;;11.40;;
59145;SDS011;44928;53.074;6.646;2022-11-18T12:31:46;19.08;;;10.05;;
59145;SDS011;44928;53.074;6.646;2022-11-18T12:34:41;21.95;;;11.55;;
59145;SDS011;44928;53.074;6.646;2022-11-18T12:39:58;22.85;;;13.50;;
59145;SDS011;44928;53.074;6.646;2022-11-18T12:42:58;22.55;;;13.00;;
59145;SDS011;44928;53.074;6.646;2022-11-18T12:56:09;25.20;;;13.43;;
59145;SDS011;44928;53.074;6.646;2022-11-18T12:58:35;23.45;;;12.40;;
59145;SDS011;44928;53.074;6.646;2022-11-18T13:01:09;23.98;;;13.27;;
59145;SDS011;44928;53.074;6.646;2022-11-18T13:03:36;18.52;;;10.82;;
59145;SDS011;44928;53.074;6.646;2022-11-18T13:06:04;20.45;;;12.55;;
59145;SDS011;44928;53.074;6.646;2022-11-18T13:08:37;19.70;;;10.50;;
59145;SDS011;44928;53.074;6.646;2022-11-18T13:11:15;19.95;;;11.70;;
59145;SDS011;44928;53.074;6.646;2022-11-18T13:14:01;21.17;;;11.30;;
59145;SDS011;44928;53.074;6.646;2022-11-18T13:16:47;21.70;;;11.30;;
59145;SDS011;44928;53.074;6.646;2022-11-18T13:19:31;19.35;;;10.85;;
59145;SDS011;44928;53.074;6.646;2022-11-18T13:21:58;19.67;;;10.82;;
59145;SDS011;44928;53.074;6.646;2022-11-18T13:24:45;18.33;;;10.52;;
59145;SDS011;44928;53.074;6.646;2022-11-18T13:30:13;23.92;;;12.95;;
59145;SDS011;44928;53.074;6.646;2022-11-18T13:32:44;24.50;;;13.73;;
59145;SDS011;44928;53.074;6.646;2022-11-18T13:37:47;23.15;;;13.20;;
59145;SDS011;44928;53.074;6.646;2022-11-18T13:40:38;24.20;;;15.27;;
59145;SDS011;44928;53.074;6.646;2022-11-18T13:43:28;25.77;;;14.95;;
59145;SDS011;44928;53.074;6.646;2022-11-18T13:45:56;25.15;;;14.93;;
59145;SDS011;44928;53.074;6.646;2022-11-18T13:48:24;24.45;;;14.35;;
59145;SDS011;44928;53.074;6.646;2022-11-18T13:50:51;24.95;;;14.63;;
59145;SDS011;44928;53.074;6.646;2022-11-18T13:56:04;23.75;;;14.25;;
59145;SDS011;44928;53.074;6.646;2022-11-18T13:58:36;25.02;;;15.10;;
59145;SDS011;44928;53.074;6.646;2022-11-18T14:01:11;23.73;;;14.60;;
59145;SDS011;44928;53.074;6.646;2022-11-18T14:06:29;26.30;;;14.70;;
59145;SDS011;44928;53.074;6.646;2022-11-18T14:09:05;24.17;;;13.80;;
59145;SDS011;44928;53.074;6.646;2022-11-18T14:11:35;25.85;;;14.80;;
59145;SDS011;44928;53.074;6.646;2022-11-18T14:14:05;25.05;;;16.33;;
59145;SDS011;44928;53.074;6.646;2022-11-18T14:16:34;24.95;;;15.32;;
59145;SDS011;44928;53.074;6.646;2022-11-18T14:19:01;25.98;;;15.60;;
59145;SDS011;44928;53.074;6.646;2022-11-18T14:21:30;25.55;;;15.30;;
59145;SDS011;44928;53.074;6.646;2022-11-18T14:24:00;25.55;;;15.32;;
59145;SDS011;44928;53.074;6.646;2022-11-18T14:26:30;24.05;;;14.07;;
59145;SDS011;44928;53.074;6.646;2022-11-18T14:28:57;22.92;;;14.20;;
59145;SDS011;44928;53.074;6.646;2022-11-18T14:31:25;22.92;;;13.52;;
59145;SDS011;44928;53.074;6.646;2022-11-18T14:34:02;21.67;;;12.52;;
59145;SDS011;44928;53.074;6.646;2022-11-18T14:36:32;22.30;;;11.68;;
59145;SDS011;44928;53.074;6.646;2022-11-18T14:38:58;22.20;;;12.70;;
59145;SDS011;44928;53.074;6.646;2022-11-18T14:41:24;19.33;;;11.48;;
59145;SDS011;44928;53.074;6.646;2022-11-18T14:44:08;20.17;;;11.93;;
59145;SDS011;44928;53.074;6.646;2022-11-18T14:46:35;20.33;;;12.15;;
59145;SDS011;44928;53.074;6.646;2022-11-18T14:49:02;19.02;;;11.00;;
59145;SDS011;44928;53.074;6.646;2022-11-18T14:51:30;18.88;;;10.73;;
59145;SDS011;44928;53.074;6.646;2022-11-18T14:53:56;17.13;;;10.57;;
59145;SDS011;44928;53.074;6.646;2022-11-18T14:56:23;20.45;;;11.73;;
59145;SDS011;44928;53.074;6.646;2022-11-18T14:58:52;23.05;;;12.85;;
59145;SDS011;44928;53.074;6.646;2022-11-18T15:01:18;21.20;;;12.98;;
59145;SDS011;44928;53.074;6.646;2022-11-18T15:03:44;23.50;;;13.65;;
59145;SDS011;44928;53.074;6.646;2022-11-18T15:06:17;22.58;;;13.15;;
59145;SDS011;44928;53.074;6.646;2022-11-18T15:08:44;22.10;;;12.85;;
59145;SDS011;44928;53.074;6.646;2022-11-18T15:11:11;20.83;;;12.80;;
59145;SDS011;44928;53.074;6.646;2022-11-18T15:13:38;20.77;;;12.52;;
59145;SDS011;44928;53.074;6.646;2022-11-18T15:16:14;23.23;;;12.82;;
59145;SDS011;44928;53.074;6.646;2022-11-18T15:18:46;20.48;;;12.95;;
59145;SDS011;44928;53.074;6.646;2022-11-18T15:21:13;22.50;;;12.77;;
59145;SDS011;44928;53.074;6.646;2022-11-18T15:23:39;20.60;;;12.63;;
59145;SDS011;44928;53.074;6.646;2022-11-18T15:26:25;19.67;;;11.63;;
59145;SDS011;44928;53.074;6.646;2022-11-18T15:28:52;19.92;;;11.13;;
59145;SDS011;44928;53.074;6.646;2022-11-18T15:31:20;20.88;;;11.55;;
59145;SDS011;44928;53.074;6.646;2022-11-18T15:33:46;20.40;;;11.27;;
59145;SDS011;44928;53.074;6.646;2022-11-18T15:36:15;20.05;;;11.05;;
59145;SDS011;44928;53.074;6.646;2022-11-18T15:38:42;21.58;;;10.93;;
59145;SDS011;44928;53.074;6.646;2022-11-18T15:41:15;18.40;;;12.00;;
59145;SDS011;44928;53.074;6.646;2022-11-18T15:43:50;21.98;;;11.55;;
59145;SDS011;44928;53.074;6.646;2022-11-18T15:46:18;22.00;;;11.75;;
59145;SDS011;44928;53.074;6.646;2022-11-18T15:48:44;20.88;;;12.73;;
59145;SDS011;44928;53.074;6.646;2022-11-18T15:51:10;21.50;;;12.23;;
59145;SDS011;44928;53.074;6.646;2022-11-18T15:53:36;23.20;;;14.18;;
59145;SDS011;44928;53.074;6.646;2022-11-18T15:58:55;23.85;;;13.55;;
59145;SDS011;44928;53.074;6.646;2022-11-18T16:01:26;25.90;;;14.43;;
59145;SDS011;44928;53.074;6.646;2022-11-18T16:03:59;21.20;;;12.68;;
59145;SDS011;44928;53.074;6.646;2022-11-18T16:06:25;22.15;;;13.38;;
59145;SDS011;44928;53.074;6.646;2022-11-18T16:08:51;23.27;;;13.70;;
59145;SDS011;44928;53.074;6.646;2022-11-18T16:11:18;25.65;;;14.82;;
59145;SDS011;44928;53.074;6.646;2022-11-18T16:14:03;25.80;;;16.17;;
59145;SDS011;44928;53.074;6.646;2022-11-18T16:16:30;25.35;;;14.52;;
59145;SDS011;44928;53.074;6.646;2022-11-18T16:18:57;24.40;;;14.07;;
59145;SDS011;44928;53.074;6.646;2022-11-18T16:21:24;22.25;;;12.30;;
59145;SDS011;44928;53.074;6.646;2022-11-18T16:23:57;20.40;;;11.55;;
59145;SDS011;44928;53.074;6.646;2022-11-18T16:26:24;19.27;;;11.32;;
59145;SDS011;44928;53.074;6.646;2022-11-18T16:28:50;22.77;;;13.38;;
59145;SDS011;44928;53.074;6.646;2022-11-18T16:31:17;25.42;;;16.10;;
59145;SDS011;44928;53.074;6.646;2022-11-18T16:36:30;28.90;;;17.13;;